sensor_id;sensor_type;location;lat;lon;timestamp;pressure;altitude;pressure_sealevel;temperature
37536;BMP180;23379;51.554;6.736;2023-11-19T00:01:32;100384.00;;;11.70
37536;BMP180;23379;51.554;6.736;2023-11-19T00:03:58;100396.00;;;11.70
37536;BMP180;23379;51.554;6.736;2023-11-19T00:06:23;100393.00;;;11.70
37536;BMP180;23379;51.554;6.736;2023-11-19T00:08:49;100375.00;;;11.80
37536;BMP180;23379;51.554;6.736;2023-11-19T00:11:15;100382.00;;;11.80
37536;BMP180;23379;51.554;6.736;2023-11-19T00:13:40;100345.00;;;11.80
37536;BMP180;23379;51.554;6.736;2023-11-19T00:16:06;100374.00;;;11.90
37536;BMP180;23379;51.554;6.736;2023-11-19T00:18:32;100358.00;;;12.10
37536;BMP180;23379;51.554;6.736;2023-11-19T00:20:58;100364.00;;;12.00
37536;BMP180;23379;51.554;6.736;2023-11-19T00:23:23;100372.00;;;12.00
37536;BMP180;23379;51.554;6.736;2023-11-19T00:25:48;100363.00;;;12.00
37536;BMP180;23379;51.554;6.736;2023-11-19T00:28:14;100356.00;;;12.10
37536;BMP180;23379;51.554;6.736;2023-11-19T00:30:39;100324.00;;;12.20
37536;BMP180;23379;51.554;6.736;2023-11-19T00:33:06;100349.00;;;12.20
37536;BMP180;23379;51.554;6.736;2023-11-19T00:35:31;100342.00;;;12.30
37536;BMP180;23379;51.554;6.736;2023-11-19T00:37:57;100325.00;;;12.30
37536;BMP180;23379;51.554;6.736;2023-11-19T00:40:23;100336.00;;;12.40
37536;BMP180;23379;51.554;6.736;2023-11-19T00:42:48;100337.00;;;12.40
37536;BMP180;23379;51.554;6.736;2023-11-19T00:45:14;100340.00;;;12.50
37536;BMP180;23379;51.554;6.736;2023-11-19T00:47:39;100338.00;;;12.50
37536;BMP180;23379;51.554;6.736;2023-11-19T00:50:05;100312.00;;;12.50
37536;BMP180;23379;51.554;6.736;2023-11-19T00:52:31;100317.00;;;12.70
37536;BMP180;23379;51.554;6.736;2023-11-19T00:54:56;100315.00;;;12.60
37536;BMP180;23379;51.554;6.736;2023-11-19T00:57:22;100316.00;;;12.60
37536;BMP180;23379;51.554;6.736;2023-11-19T00:59:47;100296.00;;;12.60
37536;BMP180;23379;51.554;6.736;2023-11-19T01:02:13;100297.00;;;12.70
37536;BMP180;23379;51.554;6.736;2023-11-19T01:04:39;100315.00;;;12.70
37536;BMP180;23379;51.554;6.736;2023-11-19T01:07:05;100309.00;;;12.70
37536;BMP180;23379;51.554;6.736;2023-11-19T01:09:32;100320.00;;;12.60
37536;BMP180;23379;51.554;6.736;2023-11-19T01:11:58;100310.00;;;12.60
37536;BMP180;23379;51.554;6.736;2023-11-19T01:14:25;100313.00;;;12.70
37536;BMP180;23379;51.554;6.736;2023-11-19T01:16:51;100332.00;;;12.60
37536;BMP180;23379;51.554;6.736;2023-11-19T01:19:19;100326.00;;;12.70
37536;BMP180;23379;51.554;6.736;2023-11-19T01:21:44;100324.00;;;12.70
37536;BMP180;23379;51.554;6.736;2023-11-19T01:24:10;100323.00;;;12.80
37536;BMP180;23379;51.554;6.736;2023-11-19T01:26:38;100330.00;;;12.70
37536;BMP180;23379;51.554;6.736;2023-11-19T01:29:03;100334.00;;;12.70
37536;BMP180;23379;51.554;6.736;2023-11-19T01:31:30;100326.00;;;12.60
37536;BMP180;23379;51.554;6.736;2023-11-19T01:33:56;100334.00;;;12.70
37536;BMP180;23379;51.554;6.736;2023-11-19T01:36:22;100315.00;;;12.90
37536;BMP180;23379;51.554;6.736;2023-11-19T01:38:48;100331.00;;;12.80
37536;BMP180;23379;51.554;6.736;2023-11-19T01:41:13;100291.00;;;12.80
37536;BMP180;23379;51.554;6.736;2023-11-19T01:43:39;100308.00;;;13.00
37536;BMP180;23379;51.554;6.736;2023-11-19T01:46:08;100283.00;;;12.80
37536;BMP180;23379;51.554;6.736;2023-11-19T01:48:37;100322.00;;;12.70
37536;BMP180;23379;51.554;6.736;2023-11-19T01:51:05;100292.00;;;12.70
37536;BMP180;23379;51.554;6.736;2023-11-19T01:53:33;100299.00;;;12.70
37536;BMP180;23379;51.554;6.736;2023-11-19T01:56:00;100322.00;;;12.70
37536;BMP180;23379;51.554;6.736;2023-11-19T01:58:26;100291.00;;;12.70
37536;BMP180;23379;51.554;6.736;2023-11-19T02:00:52;100287.00;;;12.60
37536;BMP180;23379;51.554;6.736;2023-11-19T02:03:18;100312.00;;;12.60
37536;BMP180;23379;51.554;6.736;2023-11-19T02:05:45;100274.00;;;12.60
37536;BMP180;23379;51.554;6.736;2023-11-19T02:08:14;100272.00;;;12.60
37536;BMP180;23379;51.554;6.736;2023-11-19T02:10:39;100252.00;;;12.70
37536;BMP180;23379;51.554;6.736;2023-11-19T02:13:04;100272.00;;;12.60
37536;BMP180;23379;51.554;6.736;2023-11-19T02:15:31;100276.00;;;12.70
37536;BMP180;23379;51.554;6.736;2023-11-19T02:17:57;100232.00;;;12.60
37536;BMP180;23379;51.554;6.736;2023-11-19T02:20:22;100268.00;;;12.70
37536;BMP180;23379;51.554;6.736;2023-11-19T02:22:49;100243.00;;;12.70
37536;BMP180;23379;51.554;6.736;2023-11-19T02:25:27;100273.00;;;12.80
37536;BMP180;23379;51.554;6.736;2023-11-19T02:27:57;100258.00;;;12.90
37536;BMP180;23379;51.554;6.736;2023-11-19T02:30:23;100258.00;;;12.70
37536;BMP180;23379;51.554;6.736;2023-11-19T02:32:56;100258.00;;;13.00
37536;BMP180;23379;51.554;6.736;2023-11-19T02:35:23;100249.00;;;12.90
37536;BMP180;23379;51.554;6.736;2023-11-19T02:37:49;100239.00;;;13.00
37536;BMP180;23379;51.554;6.736;2023-11-19T02:40:14;100273.00;;;12.80
37536;BMP180;23379;51.554;6.736;2023-11-19T02:42:40;100262.00;;;13.00
37536;BMP180;23379;51.554;6.736;2023-11-19T02:45:06;100237.00;;;12.90
37536;BMP180;23379;51.554;6.736;2023-11-19T02:47:33;100255.00;;;12.90
37536;BMP180;23379;51.554;6.736;2023-11-19T02:49:59;100266.00;;;12.90
37536;BMP180;23379;51.554;6.736;2023-11-19T02:52:25;100236.00;;;13.00
37536;BMP180;23379;51.554;6.736;2023-11-19T02:54:51;100250.00;;;13.00
37536;BMP180;23379;51.554;6.736;2023-11-19T02:57:16;100243.00;;;12.70
37536;BMP180;23379;51.554;6.736;2023-11-19T02:59:44;100231.00;;;12.70
37536;BMP180;23379;51.554;6.736;2023-11-19T03:02:10;100246.00;;;12.60
37536;BMP180;23379;51.554;6.736;2023-11-19T03:04:41;100244.00;;;12.80
37536;BMP180;23379;51.554;6.736;2023-11-19T03:07:08;100226.00;;;12.80
37536;BMP180;23379;51.554;6.736;2023-11-19T03:09:33;100226.00;;;12.80
37536;BMP180;23379;51.554;6.736;2023-11-19T03:12:01;100248.00;;;12.90
37536;BMP180;23379;51.554;6.736;2023-11-19T03:14:26;100224.00;;;13.00
37536;BMP180;23379;51.554;6.736;2023-11-19T03:16:51;100226.00;;;12.90
37536;BMP180;23379;51.554;6.736;2023-11-19T03:19:17;100231.00;;;12.90
37536;BMP180;23379;51.554;6.736;2023-11-19T03:21:42;100215.00;;;12.80
37536;BMP180;23379;51.554;6.736;2023-11-19T03:24:08;100257.00;;;12.60
37536;BMP180;23379;51.554;6.736;2023-11-19T03:26:34;100230.00;;;12.40
37536;BMP180;23379;51.554;6.736;2023-11-19T03:28:59;100246.00;;;12.50
37536;BMP180;23379;51.554;6.736;2023-11-19T03:31:25;100248.00;;;12.50
37536;BMP180;23379;51.554;6.736;2023-11-19T03:33:51;100235.00;;;12.60
37536;BMP180;23379;51.554;6.736;2023-11-19T03:36:16;100265.00;;;12.50
37536;BMP180;23379;51.554;6.736;2023-11-19T03:38:42;100262.00;;;12.50
37536;BMP180;23379;51.554;6.736;2023-11-19T03:41:14;100238.00;;;12.40
37536;BMP180;23379;51.554;6.736;2023-11-19T03:43:40;100266.00;;;12.40
37536;BMP180;23379;51.554;6.736;2023-11-19T03:46:20;100253.00;;;12.30
37536;BMP180;23379;51.554;6.736;2023-11-19T03:48:49;100239.00;;;12.40
37536;BMP180;23379;51.554;6.736;2023-11-19T03:51:15;100275.00;;;12.50
37536;BMP180;23379;51.554;6.736;2023-11-19T03:53:47;100277.00;;;12.50
37536;BMP180;23379;51.554;6.736;2023-11-19T03:56:12;100263.00;;;12.60
37536;BMP180;23379;51.554;6.736;2023-11-19T03:58:38;100257.00;;;12.60
37536;BMP180;23379;51.554;6.736;2023-11-19T04:01:05;100267.00;;;12.60
37536;BMP180;23379;51.554;6.736;2023-11-19T04:03:30;100262.00;;;12.50
37536;BMP180;23379;51.554;6.736;2023-11-19T04:05:55;100262.00;;;12.50
37536;BMP180;23379;51.554;6.736;2023-11-19T04:08:21;100269.00;;;12.40
37536;BMP180;23379;51.554;6.736;2023-11-19T04:10:47;100233.00;;;12.30
37536;BMP180;23379;51.554;6.736;2023-11-19T04:13:13;100259.00;;;12.10
37536;BMP180;23379;51.554;6.736;2023-11-19T04:15:38;100238.00;;;12.20
37536;BMP180;23379;51.554;6.736;2023-11-19T04:18:04;100248.00;;;12.10
37536;BMP180;23379;51.554;6.736;2023-11-19T04:20:29;100255.00;;;11.90
37536;BMP180;23379;51.554;6.736;2023-11-19T04:22:55;100287.00;;;11.90
37536;BMP180;23379;51.554;6.736;2023-11-19T04:25:21;100274.00;;;12.10
37536;BMP180;23379;51.554;6.736;2023-11-19T04:27:46;100282.00;;;12.10
37536;BMP180;23379;51.554;6.736;2023-11-19T04:30:13;100268.00;;;12.00
37536;BMP180;23379;51.554;6.736;2023-11-19T04:32:38;100258.00;;;12.00
37536;BMP180;23379;51.554;6.736;2023-11-19T04:35:04;100259.00;;;12.00
37536;BMP180;23379;51.554;6.736;2023-11-19T04:37:31;100246.00;;;11.90
37536;BMP180;23379;51.554;6.736;2023-11-19T04:39:57;100274.00;;;11.80
37536;BMP180;23379;51.554;6.736;2023-11-19T04:42:22;100269.00;;;11.90
37536;BMP180;23379;51.554;6.736;2023-11-19T04:44:47;100278.00;;;12.00
37536;BMP180;23379;51.554;6.736;2023-11-19T04:47:13;100266.00;;;12.00
37536;BMP180;23379;51.554;6.736;2023-11-19T04:49:42;100291.00;;;12.10
37536;BMP180;23379;51.554;6.736;2023-11-19T04:52:10;100285.00;;;12.00
37536;BMP180;23379;51.554;6.736;2023-11-19T04:54:43;100304.00;;;12.30
37536;BMP180;23379;51.554;6.736;2023-11-19T04:57:09;100297.00;;;12.30
37536;BMP180;23379;51.554;6.736;2023-11-19T04:59:38;100282.00;;;12.40
37536;BMP180;23379;51.554;6.736;2023-11-19T05:02:04;100290.00;;;12.30
37536;BMP180;23379;51.554;6.736;2023-11-19T05:04:30;100300.00;;;12.40
37536;BMP180;23379;51.554;6.736;2023-11-19T05:06:55;100271.00;;;12.40
37536;BMP180;23379;51.554;6.736;2023-11-19T05:09:20;100290.00;;;12.30
37536;BMP180;23379;51.554;6.736;2023-11-19T05:11:46;100289.00;;;12.20
37536;BMP180;23379;51.554;6.736;2023-11-19T05:14:11;100270.00;;;12.20
37536;BMP180;23379;51.554;6.736;2023-11-19T05:16:39;100277.00;;;12.10
37536;BMP180;23379;51.554;6.736;2023-11-19T05:19:05;100291.00;;;12.20
37536;BMP180;23379;51.554;6.736;2023-11-19T05:21:30;100266.00;;;12.20
37536;BMP180;23379;51.554;6.736;2023-11-19T05:23:55;100302.00;;;12.40
37536;BMP180;23379;51.554;6.736;2023-11-19T05:26:23;100235.00;;;12.50
37536;BMP180;23379;51.554;6.736;2023-11-19T05:28:49;100291.00;;;12.30
37536;BMP180;23379;51.554;6.736;2023-11-19T05:31:16;100318.00;;;12.30
37536;BMP180;23379;51.554;6.736;2023-11-19T05:33:41;100271.00;;;12.30
37536;BMP180;23379;51.554;6.736;2023-11-19T05:36:07;100290.00;;;12.20
37536;BMP180;23379;51.554;6.736;2023-11-19T05:38:36;100280.00;;;12.20
37536;BMP180;23379;51.554;6.736;2023-11-19T05:41:04;100284.00;;;12.10
37536;BMP180;23379;51.554;6.736;2023-11-19T05:43:30;100277.00;;;12.10
37536;BMP180;23379;51.554;6.736;2023-11-19T05:45:56;100287.00;;;12.10
37536;BMP180;23379;51.554;6.736;2023-11-19T05:48:21;100259.00;;;12.00
37536;BMP180;23379;51.554;6.736;2023-11-19T05:50:47;100269.00;;;12.10
37536;BMP180;23379;51.554;6.736;2023-11-19T05:53:14;100269.00;;;12.00
37536;BMP180;23379;51.554;6.736;2023-11-19T05:55:40;100281.00;;;12.10
37536;BMP180;23379;51.554;6.736;2023-11-19T05:58:11;100268.00;;;12.00
37536;BMP180;23379;51.554;6.736;2023-11-19T06:00:41;100282.00;;;11.90
37536;BMP180;23379;51.554;6.736;2023-11-19T06:03:09;100291.00;;;11.80
37536;BMP180;23379;51.554;6.736;2023-11-19T06:05:35;100265.00;;;11.80
37536;BMP180;23379;51.554;6.736;2023-11-19T06:08:00;100255.00;;;11.70
37536;BMP180;23379;51.554;6.736;2023-11-19T06:10:25;100246.00;;;11.80
37536;BMP180;23379;51.554;6.736;2023-11-19T06:12:59;100251.00;;;11.80
37536;BMP180;23379;51.554;6.736;2023-11-19T06:15:27;100278.00;;;11.70
37536;BMP180;23379;51.554;6.736;2023-11-19T06:17:53;100249.00;;;11.70
37536;BMP180;23379;51.554;6.736;2023-11-19T06:20:19;100265.00;;;11.60
37536;BMP180;23379;51.554;6.736;2023-11-19T06:22:45;100271.00;;;11.70
37536;BMP180;23379;51.554;6.736;2023-11-19T06:25:11;100291.00;;;11.70
37536;BMP180;23379;51.554;6.736;2023-11-19T06:27:36;100286.00;;;11.60
37536;BMP180;23379;51.554;6.736;2023-11-19T06:30:02;100287.00;;;11.60
37536;BMP180;23379;51.554;6.736;2023-11-19T06:32:27;100294.00;;;11.80
37536;BMP180;23379;51.554;6.736;2023-11-19T06:34:53;100297.00;;;11.70
37536;BMP180;23379;51.554;6.736;2023-11-19T06:37:18;100282.00;;;11.70
37536;BMP180;23379;51.554;6.736;2023-11-19T06:39:44;100281.00;;;11.70
37536;BMP180;23379;51.554;6.736;2023-11-19T06:42:09;100289.00;;;11.70
37536;BMP180;23379;51.554;6.736;2023-11-19T06:44:35;100303.00;;;11.50
37536;BMP180;23379;51.554;6.736;2023-11-19T06:47:00;100316.00;;;11.60
37536;BMP180;23379;51.554;6.736;2023-11-19T06:49:26;100299.00;;;11.70
37536;BMP180;23379;51.554;6.736;2023-11-19T06:51:51;100297.00;;;11.60
37536;BMP180;23379;51.554;6.736;2023-11-19T06:54:16;100297.00;;;11.60
37536;BMP180;23379;51.554;6.736;2023-11-19T06:56:42;100311.00;;;11.70
37536;BMP180;23379;51.554;6.736;2023-11-19T06:59:07;100247.00;;;11.60
37536;BMP180;23379;51.554;6.736;2023-11-19T07:01:36;100335.00;;;11.60
37536;BMP180;23379;51.554;6.736;2023-11-19T07:04:02;100323.00;;;11.60
37536;BMP180;23379;51.554;6.736;2023-11-19T07:06:38;100293.00;;;11.50
37536;BMP180;23379;51.554;6.736;2023-11-19T07:09:03;100333.00;;;11.70
37536;BMP180;23379;51.554;6.736;2023-11-19T07:11:38;100311.00;;;11.60
37536;BMP180;23379;51.554;6.736;2023-11-19T07:14:04;100319.00;;;11.60
37536;BMP180;23379;51.554;6.736;2023-11-19T07:16:29;100347.00;;;11.60
37536;BMP180;23379;51.554;6.736;2023-11-19T07:18:55;100339.00;;;11.70
37536;BMP180;23379;51.554;6.736;2023-11-19T07:21:20;100347.00;;;11.50
37536;BMP180;23379;51.554;6.736;2023-11-19T07:23:46;100339.00;;;11.60
37536;BMP180;23379;51.554;6.736;2023-11-19T07:26:12;100345.00;;;11.60
37536;BMP180;23379;51.554;6.736;2023-11-19T07:28:37;100364.00;;;11.70
37536;BMP180;23379;51.554;6.736;2023-11-19T07:31:05;100353.00;;;11.80
37536;BMP180;23379;51.554;6.736;2023-11-19T07:33:33;100360.00;;;11.70
37536;BMP180;23379;51.554;6.736;2023-11-19T07:35:59;100348.00;;;11.90
37536;BMP180;23379;51.554;6.736;2023-11-19T07:38:24;100372.00;;;12.00
37536;BMP180;23379;51.554;6.736;2023-11-19T07:40:49;100363.00;;;12.30
37536;BMP180;23379;51.554;6.736;2023-11-19T07:43:15;100359.00;;;12.00
37536;BMP180;23379;51.554;6.736;2023-11-19T07:45:40;100360.00;;;12.20
37536;BMP180;23379;51.554;6.736;2023-11-19T07:48:10;100379.00;;;12.50
37536;BMP180;23379;51.554;6.736;2023-11-19T07:50:36;100379.00;;;12.60
37536;BMP180;23379;51.554;6.736;2023-11-19T07:53:01;100378.00;;;12.60
37536;BMP180;23379;51.554;6.736;2023-11-19T07:55:29;100389.00;;;12.60
37536;BMP180;23379;51.554;6.736;2023-11-19T07:57:56;100397.00;;;12.70
37536;BMP180;23379;51.554;6.736;2023-11-19T08:00:21;100385.00;;;13.00
37536;BMP180;23379;51.554;6.736;2023-11-19T08:02:46;100370.00;;;12.80
37536;BMP180;23379;51.554;6.736;2023-11-19T08:05:12;100389.00;;;13.10
37536;BMP180;23379;51.554;6.736;2023-11-19T08:07:37;100396.00;;;12.90
37536;BMP180;23379;51.554;6.736;2023-11-19T08:10:04;100397.00;;;13.30
37536;BMP180;23379;51.554;6.736;2023-11-19T08:12:30;100412.00;;;13.30
37536;BMP180;23379;51.554;6.736;2023-11-19T08:14:56;100399.00;;;13.50
37536;BMP180;23379;51.554;6.736;2023-11-19T08:17:23;100409.00;;;13.90
37536;BMP180;23379;51.554;6.736;2023-11-19T08:19:49;100419.00;;;13.60
37536;BMP180;23379;51.554;6.736;2023-11-19T08:22:14;100393.00;;;13.50
37536;BMP180;23379;51.554;6.736;2023-11-19T08:24:39;100412.00;;;14.00
37536;BMP180;23379;51.554;6.736;2023-11-19T08:27:05;100423.00;;;14.00
37536;BMP180;23379;51.554;6.736;2023-11-19T08:29:30;100402.00;;;13.90
37536;BMP180;23379;51.554;6.736;2023-11-19T08:31:55;100412.00;;;13.10
37536;BMP180;23379;51.554;6.736;2023-11-19T08:34:21;100416.00;;;12.70
37536;BMP180;23379;51.554;6.736;2023-11-19T08:36:50;100407.00;;;13.00
37536;BMP180;23379;51.554;6.736;2023-11-19T08:39:15;100421.00;;;13.60
37536;BMP180;23379;51.554;6.736;2023-11-19T08:41:45;100417.00;;;14.10
37536;BMP180;23379;51.554;6.736;2023-11-19T08:44:10;100398.00;;;14.00
37536;BMP180;23379;51.554;6.736;2023-11-19T08:46:35;100430.00;;;14.00
37536;BMP180;23379;51.554;6.736;2023-11-19T08:49:01;100420.00;;;14.90
37536;BMP180;23379;51.554;6.736;2023-11-19T08:51:26;100419.00;;;15.10
37536;BMP180;23379;51.554;6.736;2023-11-19T08:53:53;100422.00;;;14.20
37536;BMP180;23379;51.554;6.736;2023-11-19T08:56:18;100417.00;;;14.20
37536;BMP180;23379;51.554;6.736;2023-11-19T08:58:44;100428.00;;;14.40
37536;BMP180;23379;51.554;6.736;2023-11-19T09:01:09;100407.00;;;14.10
37536;BMP180;23379;51.554;6.736;2023-11-19T09:03:35;100423.00;;;14.20
37536;BMP180;23379;51.554;6.736;2023-11-19T09:06:00;100422.00;;;13.80
37536;BMP180;23379;51.554;6.736;2023-11-19T09:08:26;100397.00;;;13.70
37536;BMP180;23379;51.554;6.736;2023-11-19T09:10:56;100433.00;;;13.20
37536;BMP180;23379;51.554;6.736;2023-11-19T09:13:22;100414.00;;;13.30
37536;BMP180;23379;51.554;6.736;2023-11-19T09:15:48;100417.00;;;13.90
37536;BMP180;23379;51.554;6.736;2023-11-19T09:18:19;100417.00;;;13.80
37536;BMP180;23379;51.554;6.736;2023-11-19T09:20:45;100416.00;;;13.40
37536;BMP180;23379;51.554;6.736;2023-11-19T09:23:11;100429.00;;;13.40
37536;BMP180;23379;51.554;6.736;2023-11-19T09:25:37;100396.00;;;13.00
37536;BMP180;23379;51.554;6.736;2023-11-19T09:28:02;100417.00;;;12.80
37536;BMP180;23379;51.554;6.736;2023-11-19T09:30:28;100395.00;;;12.90
37536;BMP180;23379;51.554;6.736;2023-11-19T09:32:54;100426.00;;;12.70
37536;BMP180;23379;51.554;6.736;2023-11-19T09:35:19;100412.00;;;13.00
37536;BMP180;23379;51.554;6.736;2023-11-19T09:37:44;100404.00;;;13.60
37536;BMP180;23379;51.554;6.736;2023-11-19T09:40:10;100419.00;;;13.90
37536;BMP180;23379;51.554;6.736;2023-11-19T09:42:47;100423.00;;;13.90
37536;BMP180;23379;51.554;6.736;2023-11-19T09:45:15;100416.00;;;14.00
37536;BMP180;23379;51.554;6.736;2023-11-19T09:47:45;100413.00;;;13.80
37536;BMP180;23379;51.554;6.736;2023-11-19T09:50:18;100400.00;;;14.10
37536;BMP180;23379;51.554;6.736;2023-11-19T09:52:45;100422.00;;;14.30
37536;BMP180;23379;51.554;6.736;2023-11-19T09:55:10;100423.00;;;14.80
37536;BMP180;23379;51.554;6.736;2023-11-19T09:57:38;100414.00;;;14.70
37536;BMP180;23379;51.554;6.736;2023-11-19T10:00:04;100424.00;;;14.40
37536;BMP180;23379;51.554;6.736;2023-11-19T10:02:34;100413.00;;;14.10
37536;BMP180;23379;51.554;6.736;2023-11-19T10:05:12;100412.00;;;14.00
37536;BMP180;23379;51.554;6.736;2023-11-19T10:07:38;100414.00;;;13.70
37536;BMP180;23379;51.554;6.736;2023-11-19T10:10:05;100394.00;;;13.60
37536;BMP180;23379;51.554;6.736;2023-11-19T10:12:30;100413.00;;;13.60
37536;BMP180;23379;51.554;6.736;2023-11-19T10:14:59;100397.00;;;14.00
37536;BMP180;23379;51.554;6.736;2023-11-19T10:17:34;100413.00;;;14.30
37536;BMP180;23379;51.554;6.736;2023-11-19T10:20:00;100419.00;;;14.00
37536;BMP180;23379;51.554;6.736;2023-11-19T10:22:27;100407.00;;;13.70
37536;BMP180;23379;51.554;6.736;2023-11-19T10:24:52;100417.00;;;13.90
37536;BMP180;23379;51.554;6.736;2023-11-19T10:27:18;100396.00;;;13.80
37536;BMP180;23379;51.554;6.736;2023-11-19T10:29:47;100391.00;;;13.70
37536;BMP180;23379;51.554;6.736;2023-11-19T10:32:13;100419.00;;;14.00
37536;BMP180;23379;51.554;6.736;2023-11-19T10:34:40;100404.00;;;13.90
37536;BMP180;23379;51.554;6.736;2023-11-19T10:37:06;100399.00;;;13.90
37536;BMP180;23379;51.554;6.736;2023-11-19T10:39:52;100395.00;;;14.00
37536;BMP180;23379;51.554;6.736;2023-11-19T10:42:19;100391.00;;;13.70
37536;BMP180;23379;51.554;6.736;2023-11-19T10:44:45;100391.00;;;13.90
37536;BMP180;23379;51.554;6.736;2023-11-19T10:47:11;100399.00;;;14.00
37536;BMP180;23379;51.554;6.736;2023-11-19T10:49:38;100397.00;;;14.20
37536;BMP180;23379;51.554;6.736;2023-11-19T10:52:05;100375.00;;;13.90
37536;BMP180;23379;51.554;6.736;2023-11-19T10:54:30;100388.00;;;13.70
37536;BMP180;23379;51.554;6.736;2023-11-19T10:56:59;100406.00;;;13.50
37536;BMP180;23379;51.554;6.736;2023-11-19T10:59:28;100386.00;;;13.40
37536;BMP180;23379;51.554;6.736;2023-11-19T11:01:55;100397.00;;;13.30
37536;BMP180;23379;51.554;6.736;2023-11-19T11:04:25;100405.00;;;13.40
37536;BMP180;23379;51.554;6.736;2023-11-19T11:06:54;100402.00;;;13.60
37536;BMP180;23379;51.554;6.736;2023-11-19T11:09:19;100407.00;;;13.50
37536;BMP180;23379;51.554;6.736;2023-11-19T11:11:47;100400.00;;;13.50
37536;BMP180;23379;51.554;6.736;2023-11-19T11:14:13;100388.00;;;13.50
37536;BMP180;23379;51.554;6.736;2023-11-19T11:16:46;100404.00;;;13.40
37536;BMP180;23379;51.554;6.736;2023-11-19T11:19:12;100375.00;;;13.50
37536;BMP180;23379;51.554;6.736;2023-11-19T11:21:42;100380.00;;;13.50
37536;BMP180;23379;51.554;6.736;2023-11-19T11:38:06;100367.00;;;15.10
37536;BMP180;23379;51.554;6.736;2023-11-19T11:40:32;100348.00;;;15.10
37536;BMP180;23379;51.554;6.736;2023-11-19T11:42:57;100354.00;;;16.70
37536;BMP180;23379;51.554;6.736;2023-11-19T11:45:36;100356.00;;;17.20
37536;BMP180;23379;51.554;6.736;2023-11-19T11:48:12;100374.00;;;17.40
37536;BMP180;23379;51.554;6.736;2023-11-19T11:50:48;100338.00;;;18.30
37536;BMP180;23379;51.554;6.736;2023-11-19T11:53:19;100324.00;;;17.40
37536;BMP180;23379;51.554;6.736;2023-11-19T11:58:25;100305.00;;;16.70
37536;BMP180;23379;51.554;6.736;2023-11-19T12:00:51;100337.00;;;15.80
37536;BMP180;23379;51.554;6.736;2023-11-19T12:03:20;100345.00;;;15.50
37536;BMP180;23379;51.554;6.736;2023-11-19T12:05:47;100326.00;;;14.80
37536;BMP180;23379;51.554;6.736;2023-11-19T12:08:13;100374.00;;;14.40
37536;BMP180;23379;51.554;6.736;2023-11-19T12:10:51;100359.00;;;14.30
37536;BMP180;23379;51.554;6.736;2023-11-19T12:13:20;100343.00;;;14.20
37536;BMP180;23379;51.554;6.736;2023-11-19T12:18:29;100330.00;;;14.10
37536;BMP180;23379;51.554;6.736;2023-11-19T12:20:56;100317.00;;;14.30
37536;BMP180;23379;51.554;6.736;2023-11-19T12:23:25;100312.00;;;15.30
37536;BMP180;23379;51.554;6.736;2023-11-19T12:25:50;100336.00;;;14.70
37536;BMP180;23379;51.554;6.736;2023-11-19T12:28:16;100335.00;;;14.50
37536;BMP180;23379;51.554;6.736;2023-11-19T12:30:42;100344.00;;;14.00
37536;BMP180;23379;51.554;6.736;2023-11-19T12:33:09;100283.00;;;13.30
37536;BMP180;23379;51.554;6.736;2023-11-19T12:35:42;100326.00;;;12.90
37536;BMP180;23379;51.554;6.736;2023-11-19T12:38:20;100339.00;;;12.60
37536;BMP180;23379;51.554;6.736;2023-11-19T12:40:46;100354.00;;;12.50
37536;BMP180;23379;51.554;6.736;2023-11-19T12:43:21;100330.00;;;12.40
37536;BMP180;23379;51.554;6.736;2023-11-19T12:45:46;100315.00;;;12.20
37536;BMP180;23379;51.554;6.736;2023-11-19T12:48:12;100341.00;;;12.50
37536;BMP180;23379;51.554;6.736;2023-11-19T12:50:56;100343.00;;;12.70
37536;BMP180;23379;51.554;6.736;2023-11-19T12:53:23;100316.00;;;12.90
37536;BMP180;23379;51.554;6.736;2023-11-19T12:55:50;100336.00;;;13.30
37536;BMP180;23379;51.554;6.736;2023-11-19T12:58:29;100319.00;;;14.20
37536;BMP180;23379;51.554;6.736;2023-11-19T13:01:06;100319.00;;;15.80
37536;BMP180;23379;51.554;6.736;2023-11-19T13:03:33;100356.00;;;16.40
37536;BMP180;23379;51.554;6.736;2023-11-19T13:06:06;100335.00;;;15.80
37536;BMP180;23379;51.554;6.736;2023-11-19T13:08:45;100340.00;;;15.30
37536;BMP180;23379;51.554;6.736;2023-11-19T13:11:12;100355.00;;;15.30
37536;BMP180;23379;51.554;6.736;2023-11-19T13:13:57;100351.00;;;15.50
37536;BMP180;23379;51.554;6.736;2023-11-19T13:16:24;100346.00;;;16.70
37536;BMP180;23379;51.554;6.736;2023-11-19T13:18:50;100361.00;;;16.70
37536;BMP180;23379;51.554;6.736;2023-11-19T13:21:16;100350.00;;;17.20
37536;BMP180;23379;51.554;6.736;2023-11-19T13:23:42;100324.00;;;16.90
37536;BMP180;23379;51.554;6.736;2023-11-19T13:26:08;100323.00;;;16.30
37536;BMP180;23379;51.554;6.736;2023-11-19T13:28:33;100349.00;;;15.30
37536;BMP180;23379;51.554;6.736;2023-11-19T13:30:59;100350.00;;;15.30
37536;BMP180;23379;51.554;6.736;2023-11-19T13:33:24;100333.00;;;15.20
37536;BMP180;23379;51.554;6.736;2023-11-19T13:35:49;100342.00;;;16.10
37536;BMP180;23379;51.554;6.736;2023-11-19T13:38:15;100347.00;;;16.90
37536;BMP180;23379;51.554;6.736;2023-11-19T13:40:40;100336.00;;;17.70
37536;BMP180;23379;51.554;6.736;2023-11-19T13:43:06;100325.00;;;17.30
37536;BMP180;23379;51.554;6.736;2023-11-19T13:45:32;100326.00;;;16.70
37536;BMP180;23379;51.554;6.736;2023-11-19T13:47:57;100331.00;;;16.60
37536;BMP180;23379;51.554;6.736;2023-11-19T13:50:23;100330.00;;;16.70
37536;BMP180;23379;51.554;6.736;2023-11-19T13:53:00;100316.00;;;15.20
37536;BMP180;23379;51.554;6.736;2023-11-19T13:55:26;100310.00;;;14.70
37536;BMP180;23379;51.554;6.736;2023-11-19T13:57:52;100333.00;;;13.90
37536;BMP180;23379;51.554;6.736;2023-11-19T14:00:17;100318.00;;;13.90
37536;BMP180;23379;51.554;6.736;2023-11-19T14:02:45;100338.00;;;13.70
37536;BMP180;23379;51.554;6.736;2023-11-19T14:05:10;100326.00;;;13.50
37536;BMP180;23379;51.554;6.736;2023-11-19T14:07:37;100312.00;;;13.40
37536;BMP180;23379;51.554;6.736;2023-11-19T14:10:03;100306.00;;;13.40
37536;BMP180;23379;51.554;6.736;2023-11-19T14:12:30;100309.00;;;13.20
37536;BMP180;23379;51.554;6.736;2023-11-19T14:14:55;100318.00;;;12.90